createdAt,value
2023-05-10T00:00:06.094Z,100815.84
2023-05-10T00:03:16.210Z,100815.28
2023-05-10T00:06:19.395Z,100815.44
2023-05-10T00:09:22.262Z,100817.31
2023-05-10T00:12:26.552Z,100813.06
2023-05-10T00:15:29.439Z,100809.09
2023-05-10T00:18:32.397Z,100807.59
2023-05-10T00:21:36.613Z,100807.84
2023-05-10T00:24:39.578Z,100805.25
2023-05-10T00:27:42.657Z,100805.38
2023-05-10T00:30:45.937Z,100802.66
2023-05-10T00:33:49.224Z,100803.69
2023-05-10T00:36:52.390Z,100802.09
2023-05-10T00:39:57.207Z,100800.41
2023-05-10T00:43:01.613Z,100804.59
2023-05-10T00:46:05.770Z,100809.81
2023-05-10T00:49:11.448Z,100803.28
2023-05-10T00:52:14.532Z,100799.34
2023-05-10T00:55:18.102Z,100799.66
2023-05-10T00:58:22.717Z,100793.91
2023-05-10T01:01:33.314Z,100792.16
2023-05-10T01:04:38.845Z,100797.66
2023-05-10T01:07:45.144Z,100795.41
2023-05-10T01:17:28.580Z,100795.28
2023-05-10T01:20:48.050Z,100801.44
2023-05-10T01:24:10.658Z,100800.56
2023-05-10T01:27:33.751Z,100797.97
2023-05-10T01:31:07.655Z,100800.19
2023-05-10T01:34:23.293Z,100793.59
2023-05-10T01:38:01.578Z,100792.97
2023-05-10T01:41:27.361Z,100792.94
2023-05-10T01:44:38.868Z,100794.44
2023-05-10T01:47:55.762Z,100786.63
2023-05-10T01:51:00.220Z,100791.50
2023-05-10T01:54:06.166Z,100793.44
2023-05-10T01:57:11.693Z,100778.88
2023-05-10T02:00:17.463Z,100780.81
2023-05-10T02:03:24.733Z,100773.91
2023-05-10T02:06:29.822Z,100774.81
2023-05-10T02:09:34.942Z,100773.44
2023-05-10T02:12:43.118Z,100765.13
2023-05-10T02:15:50.103Z,100768.03
2023-05-10T02:18:55.424Z,100764.56
2023-05-10T02:21:59.748Z,100757.59
2023-05-10T02:25:05.065Z,100768.75
2023-05-10T02:28:10.078Z,100768.63
2023-05-10T02:31:14.682Z,100760.22
2023-05-10T02:34:19.709Z,100756.06
2023-05-10T02:37:23.911Z,100764.72
2023-05-10T02:40:29.035Z,100764.03
2023-05-10T02:43:38.039Z,100765.88
2023-05-10T02:46:41.730Z,100772.03
2023-05-10T02:49:45.111Z,100771.38
2023-05-10T02:52:52.588Z,100769.00
2023-05-10T02:55:59.058Z,100772.41
2023-05-10T02:59:04.995Z,100774.06
2023-05-10T03:02:16.135Z,100767.38
2023-05-10T03:05:20.952Z,100770.13
2023-05-10T03:08:26.489Z,100766.81
2023-05-10T03:11:53.094Z,100779.63
2023-05-10T03:15:26.562Z,100777.63
2023-05-10T03:18:57.780Z,100785.47
2023-05-10T03:22:08.035Z,100784.78
2023-05-10T03:25:18.051Z,100783.00
2023-05-10T03:28:23.999Z,100780.38
2023-05-10T03:31:28.263Z,100786.44
2023-05-10T03:34:34.239Z,100778.81
2023-05-10T03:37:41.201Z,100780.56
2023-05-10T03:40:46.831Z,100782.06
2023-05-10T03:43:51.650Z,100785.28
2023-05-10T03:46:56.608Z,100782.56
2023-05-10T03:50:02.303Z,100780.59
2023-05-10T03:53:07.321Z,100771.91
2023-05-10T03:56:11.217Z,100762.09
2023-05-10T03:59:18.390Z,100776.25
2023-05-10T04:02:25.766Z,100780.16
2023-05-10T04:05:32.120Z,100768.69
2023-05-10T04:08:39.389Z,100766.59
2023-05-10T04:11:49.591Z,100780.03
2023-05-10T04:14:56.896Z,100781.38
2023-05-10T04:18:00.339Z,100782.66
2023-05-10T04:21:20.158Z,100781.50
2023-05-10T04:24:28.190Z,100775.38
2023-05-10T04:27:34.955Z,100782.09
2023-05-10T04:30:41.867Z,100781.09
2023-05-10T04:33:54.579Z,100785.91
2023-05-10T04:37:03.504Z,100783.81
2023-05-10T04:40:07.931Z,100790.91
2023-05-10T04:43:12.438Z,100778.91
2023-05-10T04:46:19.761Z,100778.31
2023-05-10T04:49:26.186Z,100774.50
2023-05-10T04:52:34.680Z,100773.66
2023-05-10T04:55:41.418Z,100774.66
2023-05-10T04:58:47.461Z,100769.28
2023-05-10T05:01:52.343Z,100763.06
2023-05-10T05:05:02.484Z,100774.19
2023-05-10T05:08:27.844Z,100772.25
2023-05-10T05:11:38.651Z,100765.84
2023-05-10T05:14:46.370Z,100762.44
2023-05-10T05:18:25.251Z,100764.25
2023-05-10T05:21:48.715Z,100777.44
2023-05-10T05:25:03.945Z,100767.16
2023-05-10T05:28:10.097Z,100751.84
2023-05-10T05:31:18.565Z,100753.00
2023-05-10T05:34:23.535Z,100745.72
2023-05-10T05:37:35.192Z,100751.91
2023-05-10T05:40:39.665Z,100754.34
2023-05-10T05:43:51.409Z,100774.13
2023-05-10T05:47:02.942Z,100773.31
2023-05-10T05:50:15.796Z,100780.25
2023-05-10T05:53:27.619Z,100772.09
2023-05-10T05:56:37.774Z,100782.56
2023-05-10T05:59:47.287Z,100761.75
2023-05-10T06:02:51.290Z,100798.41
2023-05-10T06:05:59.854Z,100787.00
2023-05-10T06:09:10.588Z,100795.19
2023-05-10T06:12:23.144Z,100777.31
2023-05-10T06:34:56.896Z,100793.13
2023-05-10T06:38:14.820Z,100798.34
2023-05-10T06:46:36.200Z,100788.47
2023-05-10T06:50:25.254Z,100800.09
2023-05-10T06:59:24.143Z,100785.69
2023-05-10T07:03:34.813Z,100792.47
2023-05-10T07:10:58.084Z,100805.97
2023-05-10T07:14:22.520Z,100803.88
2023-05-10T07:18:27.418Z,100815.50
2023-05-10T07:21:50.884Z,100812.47
2023-05-10T07:25:07.061Z,100804.19
2023-05-10T07:28:19.017Z,100806.84
2023-05-10T07:31:27.119Z,100803.59
2023-05-10T07:34:39.557Z,100806.09
2023-05-10T07:37:56.505Z,100805.25
2023-05-10T07:41:13.759Z,100808.72
2023-05-10T07:44:30.689Z,100812.28
2023-05-10T07:51:15.913Z,100788.09
2023-05-10T07:54:36.911Z,100811.63
2023-05-10T07:57:49.636Z,100805.34
2023-05-10T08:01:32.275Z,100798.16
2023-05-10T08:04:55.919Z,100804.84
2023-05-10T08:08:37.740Z,100812.47
2023-05-10T08:11:44.856Z,100806.50
2023-05-10T08:14:57.760Z,100783.47
2023-05-10T08:21:47.649Z,100808.53
2023-05-10T08:24:56.502Z,100801.66
2023-05-10T08:28:21.869Z,100810.81
2023-05-10T08:31:31.777Z,100801.88
2023-05-10T08:34:37.206Z,100810.31
2023-05-10T08:37:49.179Z,100810.56
2023-05-10T08:49:13.116Z,100807.03
2023-05-10T08:52:44.563Z,100810.97
2023-05-10T08:57:11.218Z,100810.50
2023-05-10T09:05:50.166Z,100801.72
2023-05-10T09:13:14.174Z,100784.31
2023-05-10T09:16:44.917Z,100791.13
2023-05-10T09:19:59.103Z,100794.84
2023-05-10T09:23:17.011Z,100781.72
2023-05-10T09:26:24.509Z,100790.56
2023-05-10T09:29:44.973Z,100791.47
2023-05-10T09:32:56.484Z,100785.16
2023-05-10T09:36:17.011Z,100778.88
2023-05-10T09:39:39.120Z,100773.44
2023-05-10T09:42:57.782Z,100770.63
2023-05-10T09:46:12.836Z,100772.53
2023-05-10T09:49:19.396Z,100768.41
2023-05-10T09:52:57.950Z,100766.16
2023-05-10T09:56:02.552Z,100761.69
2023-05-10T09:59:17.201Z,100750.53
2023-05-10T10:02:36.338Z,100747.22
2023-05-10T10:05:56.625Z,100741.84
2023-05-10T10:09:26.155Z,100743.13
2023-05-10T10:16:31.829Z,100738.81
2023-05-10T10:19:47.400Z,100715.44
2023-05-10T10:23:18.000Z,100728.25
2023-05-10T10:27:13.224Z,100726.16
2023-05-10T10:30:53.968Z,100701.78
2023-05-10T10:44:06.928Z,100709.34
2023-05-10T10:48:27.279Z,100704.63
2023-05-10T11:06:40.069Z,100677.25
2023-05-10T11:14:09.428Z,100680.50
2023-05-10T11:17:35.856Z,100667.78
2023-05-10T11:21:03.268Z,100670.72
2023-05-10T11:24:36.361Z,100673.72
2023-05-10T11:28:06.663Z,100652.25
2023-05-10T11:31:14.881Z,100676.69
2023-05-10T11:39:00.663Z,100646.84
2023-05-10T11:42:11.101Z,100653.75
2023-05-10T11:45:18.367Z,100650.47
2023-05-10T11:48:29.627Z,100661.94
2023-05-10T11:51:47.745Z,100661.19
2023-05-10T11:55:00.238Z,100662.38
2023-05-10T11:58:30.295Z,100656.13
2023-05-10T12:01:49.903Z,100646.84
2023-05-10T12:10:11.688Z,100632.25
2023-05-10T12:33:55.161Z,100618.69
2023-05-10T12:43:17.680Z,100608.38
2023-05-10T12:46:30.566Z,100628.44
2023-05-10T12:49:48.084Z,100623.28
2023-05-10T12:53:47.354Z,100604.50
2023-05-10T12:57:26.300Z,100612.88
2023-05-10T13:08:15.763Z,100596.94
2023-05-10T13:11:25.108Z,100598.19
2023-05-10T13:14:32.280Z,100582.09
2023-05-10T13:17:40.442Z,100583.16
2023-05-10T13:21:05.612Z,100583.75
2023-05-10T13:24:10.571Z,100584.56
2023-05-10T13:27:19.441Z,100583.41
2023-05-10T13:30:29.979Z,100579.47
2023-05-10T13:33:42.410Z,100581.38
2023-05-10T13:36:50.550Z,100574.53
2023-05-10T13:40:00.514Z,100563.97
2023-05-10T13:43:13.190Z,100567.22
2023-05-10T13:49:38.987Z,100573.19
2023-05-10T13:52:50.292Z,100570.28
2023-05-10T13:55:54.145Z,100553.59
2023-05-10T13:59:09.226Z,100568.16
2023-05-10T14:02:32.752Z,100572.06
2023-05-10T14:05:48.412Z,100556.56
2023-05-10T14:08:51.890Z,100553.47
2023-05-10T14:11:57.257Z,100555.22
2023-05-10T14:15:00.596Z,100549.91
2023-05-10T14:18:04.722Z,100541.00
2023-05-10T14:21:10.845Z,100539.00
2023-05-10T14:24:14.110Z,100544.94
2023-05-10T14:27:20.802Z,100542.47
2023-05-10T14:30:24.192Z,100536.25
2023-05-10T14:33:28.257Z,100523.88
2023-05-10T14:36:32.084Z,100545.97
2023-05-10T14:39:36.745Z,100523.50
2023-05-10T14:42:40.272Z,100540.41
2023-05-10T14:45:46.558Z,100533.81
2023-05-10T14:48:58.156Z,100535.13
2023-05-10T14:52:01.249Z,100531.03
2023-05-10T14:55:04.920Z,100529.31
2023-05-10T14:58:08.496Z,100524.47
2023-05-10T15:01:12.438Z,100519.63
2023-05-10T15:04:17.715Z,100520.09
2023-05-10T15:07:22.324Z,100517.75
2023-05-10T15:10:28.817Z,100509.97
2023-05-10T15:13:32.576Z,100507.50
2023-05-10T15:16:36.479Z,100507.38
2023-05-10T15:19:45.173Z,100512.31
2023-05-10T15:22:48.795Z,100507.75
2023-05-10T15:25:56.933Z,100498.22
2023-05-10T15:29:00.776Z,100496.97
2023-05-10T15:32:04.329Z,100499.31
2023-05-10T15:35:12.764Z,100493.78
2023-05-10T15:38:17.462Z,100493.88
2023-05-10T15:41:21.017Z,100497.41
2023-05-10T15:44:30.001Z,100495.34
2023-05-10T15:47:34.697Z,100489.31
2023-05-10T15:50:38.251Z,100491.41
2023-05-10T15:53:52.931Z,100489.34
2023-05-10T15:57:04.772Z,100487.56
2023-05-10T16:00:13.503Z,100486.88
2023-05-10T16:03:16.991Z,100494.84
2023-05-10T16:06:20.346Z,100495.56
2023-05-10T16:09:23.900Z,100497.59
2023-05-10T16:12:30.583Z,100488.78
2023-05-10T16:15:34.371Z,100495.38
2023-05-10T16:18:37.856Z,100491.75
2023-05-10T16:21:41.352Z,100486.03
2023-05-10T16:24:44.636Z,100486.19
2023-05-10T16:27:48.272Z,100495.19
2023-05-10T16:30:51.856Z,100497.78
2023-05-10T16:33:54.766Z,100494.47
2023-05-10T16:36:57.642Z,100487.44
2023-05-10T16:40:00.636Z,100487.75
2023-05-10T16:43:03.857Z,100497.72
2023-05-10T16:46:13.284Z,100501.69
2023-05-10T16:49:16.521Z,100499.50
2023-05-10T16:52:19.759Z,100498.47
2023-05-10T16:55:25.430Z,100500.28
2023-05-10T16:58:29.091Z,100502.78
2023-05-10T17:01:31.995Z,100505.06
2023-05-10T17:04:37.247Z,100509.69
2023-05-10T17:07:40.485Z,100508.66
2023-05-10T17:10:43.503Z,100509.38
2023-05-10T17:13:46.401Z,100519.59
2023-05-10T17:16:49.876Z,100516.75
2023-05-10T17:19:52.868Z,100514.03
2023-05-10T17:22:55.728Z,100515.78
2023-05-10T17:26:00.240Z,100511.41
2023-05-10T17:29:07.520Z,100516.69
2023-05-10T17:32:10.594Z,100516.66
2023-05-10T17:35:14.560Z,100519.13
2023-05-10T17:38:17.820Z,100526.09
2023-05-10T17:41:21.943Z,100526.16
2023-05-10T17:44:26.027Z,100524.56
2023-05-10T17:47:29.223Z,100522.84
2023-05-10T17:50:33.232Z,100523.03
2023-05-10T17:53:36.260Z,100529.47
2023-05-10T17:56:39.143Z,100527.28
2023-05-10T17:59:42.409Z,100536.19
2023-05-10T18:02:48.502Z,100529.03
2023-05-10T18:05:51.599Z,100539.78
2023-05-10T18:08:54.615Z,100548.00
2023-05-10T18:11:58.200Z,100549.47
2023-05-10T18:15:01.200Z,100554.97
2023-05-10T18:18:05.633Z,100554.13
2023-05-10T18:21:08.865Z,100549.00
2023-05-10T18:24:11.755Z,100558.03
2023-05-10T18:27:15.423Z,100554.25
2023-05-10T18:30:18.706Z,100560.41
2023-05-10T18:33:21.761Z,100562.84
2023-05-10T18:36:24.845Z,100566.16
2023-05-10T18:39:28.116Z,100565.81
2023-05-10T18:42:32.621Z,100568.47
2023-05-10T18:45:36.110Z,100573.09
2023-05-10T18:48:39.290Z,100570.16
2023-05-10T18:51:42.292Z,100577.69
2023-05-10T18:54:45.676Z,100573.06
2023-05-10T18:57:48.710Z,100578.66
2023-05-10T19:00:53.101Z,100584.66
2023-05-10T19:03:59.352Z,100582.91
2023-05-10T19:07:03.665Z,100589.97
2023-05-10T19:10:07.396Z,100581.34
2023-05-10T19:13:11.290Z,100589.66
2023-05-10T19:16:17.124Z,100583.66
2023-05-10T19:19:23.576Z,100593.03
2023-05-10T19:25:37.184Z,100597.84
2023-05-10T19:28:40.994Z,100591.84
2023-05-10T19:31:45.920Z,100587.63
2023-05-10T19:34:50.740Z,100580.16
2023-05-10T19:37:54.482Z,100589.03
2023-05-10T19:41:01.195Z,100582.72
2023-05-10T19:44:07.905Z,100584.84
2023-05-10T19:47:15.292Z,100600.53
2023-05-10T19:50:26.164Z,100589.56
2023-05-10T19:53:32.582Z,100593.28
2023-05-10T19:56:42.513Z,100593.84
2023-05-10T20:00:04.973Z,100589.00
2023-05-10T20:03:21.876Z,100587.75
2023-05-10T20:06:38.472Z,100593.44
2023-05-10T20:10:05.323Z,100590.34
2023-05-10T20:13:43.393Z,100584.94
2023-05-10T20:16:50.113Z,100591.31
2023-05-10T20:20:02.113Z,100587.38
2023-05-10T20:23:08.920Z,100588.94
2023-05-10T20:26:12.901Z,100579.44
2023-05-10T20:29:35.118Z,100564.97
2023-05-10T20:32:40.844Z,100588.19
2023-05-10T20:35:51.507Z,100596.13
2023-05-10T20:38:59.236Z,100590.50
2023-05-10T20:42:06.511Z,100592.59
2023-05-10T20:45:13.160Z,100595.56
2023-05-10T20:48:17.876Z,100595.16
2023-05-10T20:51:22.480Z,100594.09
2023-05-10T20:54:25.770Z,100598.59
2023-05-10T20:57:29.159Z,100594.56
2023-05-10T21:00:33.144Z,100597.31
2023-05-10T21:03:36.725Z,100599.47
2023-05-10T21:06:45.618Z,100599.75
2023-05-10T21:09:48.899Z,100596.56
2023-05-10T21:12:52.487Z,100596.50
2023-05-10T21:15:56.086Z,100595.81
2023-05-10T21:19:02.182Z,100595.13
2023-05-10T21:22:05.529Z,100583.34
2023-05-10T21:25:09.274Z,100593.13
2023-05-10T21:28:12.610Z,100603.88
2023-05-10T21:31:16.427Z,100588.97
2023-05-10T21:34:19.737Z,100590.16
2023-05-10T21:37:23.024Z,100594.66
2023-05-10T21:40:25.955Z,100598.97
2023-05-10T21:43:29.823Z,100594.88
2023-05-10T21:46:33.413Z,100596.81
2023-05-10T21:49:36.854Z,100596.97
2023-05-10T21:52:40.039Z,100593.50
2023-05-10T21:55:42.902Z,100601.25
2023-05-10T21:58:46.077Z,100600.59
2023-05-10T22:01:49.359Z,100601.41
2023-05-10T22:04:52.632Z,100597.88
2023-05-10T22:07:55.916Z,100608.66
2023-05-10T22:10:59.198Z,100605.31
2023-05-10T22:14:02.485Z,100593.56
2023-05-10T22:17:05.839Z,100599.78
2023-05-10T22:20:09.860Z,100604.19
2023-05-10T22:23:13.931Z,100599.38
2023-05-10T22:26:18.604Z,100607.94
2023-05-10T22:29:27.882Z,100607.13
2023-05-10T22:32:32.137Z,100601.31
2023-05-10T22:35:38.125Z,100593.56
2023-05-10T22:38:44.819Z,100589.72
2023-05-10T22:41:48.568Z,100607.44
2023-05-10T22:44:55.028Z,100596.59
2023-05-10T22:48:01.014Z,100603.28
2023-05-10T22:51:05.366Z,100602.06
2023-05-10T22:54:08.972Z,100601.31
2023-05-10T22:57:13.002Z,100599.63
2023-05-10T23:00:17.677Z,100592.00
2023-05-10T23:03:28.327Z,100591.88
2023-05-10T23:06:33.336Z,100604.59
2023-05-10T23:09:36.513Z,100592.38
2023-05-10T23:12:39.378Z,100597.13
2023-05-10T23:15:43.812Z,100595.69
2023-05-10T23:18:47.005Z,100589.19
2023-05-10T23:21:50.347Z,100591.53
2023-05-10T23:24:53.516Z,100593.22
2023-05-10T23:27:57.406Z,100595.56
2023-05-10T23:31:00.791Z,100595.56
2023-05-10T23:34:04.174Z,100585.59
2023-05-10T23:37:06.951Z,100597.09
2023-05-10T23:40:10.538Z,100596.56
2023-05-10T23:43:16.269Z,100589.19
2023-05-10T23:46:19.492Z,100593.69
2023-05-10T23:49:22.521Z,100597.94
2023-05-10T23:52:25.563Z,100594.56
2023-05-10T23:56:12.369Z,100601.97
2023-05-10T23:59:15.557Z,100587.41
